createdAt,value
2018-12-14T00:00:41.638Z,100562.26
2018-12-14T00:03:10.962Z,100566.58
2018-12-14T00:05:40.197Z,100561.88
2018-12-14T00:08:09.426Z,100562.87
2018-12-14T00:10:38.801Z,100559.52
2018-12-14T00:13:07.962Z,100562.74
2018-12-14T00:15:37.209Z,100555.40
2018-12-14T00:18:33.256Z,100556.27
2018-12-14T00:21:02.557Z,100555.40
2018-12-14T00:23:31.776Z,100555.05
2018-12-14T00:26:00.992Z,100556.23
2018-12-14T00:28:30.187Z,100559.23
2018-12-14T00:30:59.485Z,100556.85
2018-12-14T00:33:28.697Z,100564.26
2018-12-14T00:35:57.985Z,100563.20
2018-12-14T00:38:27.183Z,100566.81
2018-12-14T00:40:56.600Z,100570.07
2018-12-14T00:43:25.803Z,100563.86
2018-12-14T00:45:54.997Z,100569.11
2018-12-14T00:48:24.227Z,100567.66
2018-12-14T00:50:53.420Z,100562.54
2018-12-14T00:53:22.640Z,100569.36
2018-12-14T00:55:51.859Z,100569.54
2018-12-14T00:58:21.106Z,100568.22
2018-12-14T01:00:50.343Z,100570.64
2018-12-14T01:03:19.608Z,100571.08
2018-12-14T01:05:48.853Z,100564.79
2018-12-14T01:08:18.044Z,100574.53
2018-12-14T01:10:47.273Z,100572.84
2018-12-14T01:13:16.443Z,100567.61
2018-12-14T01:15:45.726Z,100576.86
2018-12-14T01:18:15.347Z,100576.23
2018-12-14T01:20:44.560Z,100574.83
2018-12-14T01:23:13.814Z,100574.08
2018-12-14T01:25:43.199Z,100572.14
2018-12-14T01:28:12.503Z,100575.80
2018-12-14T01:30:41.664Z,100577.50
2018-12-14T01:33:10.897Z,100580.08
2018-12-14T01:35:40.142Z,100589.28
2018-12-14T01:38:09.353Z,100586.89
2018-12-14T01:40:38.592Z,100578.62
2018-12-14T01:43:07.862Z,100588.45
2018-12-14T01:45:37.093Z,100587.10
2018-12-14T01:48:06.346Z,100588.33
2018-12-14T01:50:35.654Z,100583.65
2018-12-14T01:53:04.887Z,100591.52
2018-12-14T01:55:34.111Z,100587.69
2018-12-14T01:58:03.347Z,100580.95
2018-12-14T02:00:32.611Z,100586.59
2018-12-14T02:03:01.849Z,100586.29
2018-12-14T02:05:31.042Z,100586.63
2018-12-14T02:08:00.329Z,100586.11
2018-12-14T02:10:29.498Z,100583.84
2018-12-14T02:12:58.708Z,100573.69
2018-12-14T02:15:27.935Z,100574.38
2018-12-14T02:17:57.163Z,100572.70
2018-12-14T02:20:26.476Z,100566.61
2018-12-14T02:22:55.642Z,100570.41
2018-12-14T02:25:24.847Z,100565.70
2018-12-14T02:27:54.037Z,100563.84
2018-12-14T02:30:46.376Z,100569.70
2018-12-14T02:33:16.335Z,100566.61
2018-12-14T02:35:45.562Z,100563.80
2018-12-14T02:38:14.892Z,100557.17
2018-12-14T02:40:44.165Z,100561.64
2018-12-14T02:43:13.904Z,100549.79
2018-12-14T02:45:43.190Z,100552.08
2018-12-14T02:48:12.737Z,100557.00
2018-12-14T02:50:41.962Z,100554.39
2018-12-14T02:53:11.210Z,100552.48
2018-12-14T02:55:40.473Z,100555.70
2018-12-14T02:58:10.525Z,100558.06
2018-12-14T03:00:39.850Z,100556.88
2018-12-14T03:03:09.240Z,100553.14
2018-12-14T03:05:38.440Z,100560.58
2018-12-14T03:08:07.733Z,100554.08
2018-12-14T03:10:36.924Z,100560.69
2018-12-14T03:13:06.194Z,100564.83
2018-12-14T03:15:35.471Z,100554.52
2018-12-14T03:18:04.704Z,100559.90
2018-12-14T03:20:33.961Z,100554.05
2018-12-14T03:23:03.215Z,100559.94
2018-12-14T03:25:32.506Z,100561.97
2018-12-14T03:28:01.695Z,100559.67
2018-12-14T03:30:30.886Z,100567.25
2018-12-14T03:33:00.090Z,100567.61
2018-12-14T03:35:29.308Z,100566.55
2018-12-14T03:37:58.478Z,100559.23
2018-12-14T03:40:27.745Z,100562.26
2018-12-14T03:42:58.144Z,100563.58
2018-12-14T03:45:27.455Z,100559.72
2018-12-14T03:47:56.665Z,100561.58
2018-12-14T03:50:26.237Z,100563.00
2018-12-14T03:52:55.438Z,100573.31
2018-12-14T03:55:24.697Z,100569.22
2018-12-14T03:57:53.900Z,100565.03
2018-12-14T04:00:23.263Z,100561.33
2018-12-14T04:02:52.596Z,100566.96
2018-12-14T04:05:21.853Z,100566.84
2018-12-14T04:07:51.288Z,100570.31
2018-12-14T04:10:20.485Z,100562.28
2018-12-14T04:12:49.768Z,100562.77
2018-12-14T04:15:19.992Z,100567.55
2018-12-14T04:17:49.192Z,100562.73
2018-12-14T04:20:18.921Z,100557.74
2018-12-14T04:22:48.442Z,100559.80
2018-12-14T04:25:18.450Z,100566.17
2018-12-14T04:27:47.677Z,100549.00
2018-12-14T04:30:17.871Z,100561.59
2018-12-14T04:32:50.285Z,100560.86
2018-12-14T04:35:19.476Z,100554.87
2018-12-14T04:37:49.016Z,100561.83
2018-12-14T04:40:19.419Z,100554.01
2018-12-14T04:42:49.128Z,100555.58
2018-12-14T04:45:19.710Z,100559.06
2018-12-14T04:47:48.880Z,100555.10
2018-12-14T04:50:18.310Z,100561.09
2018-12-14T04:52:47.517Z,100552.81
2018-12-14T04:55:17.839Z,100555.10
2018-12-14T04:57:47.056Z,100550.42
2018-12-14T05:00:17.576Z,100550.42
2018-12-14T05:02:46.861Z,100548.74
2018-12-14T05:05:17.038Z,100554.00
2018-12-14T05:07:46.249Z,100562.03
2018-12-14T05:10:16.225Z,100564.83
2018-12-14T05:12:45.515Z,100564.36
2018-12-14T05:15:15.343Z,100561.11
2018-12-14T05:17:44.597Z,100561.83
2018-12-14T05:20:14.452Z,100557.86
2018-12-14T05:22:43.710Z,100560.38
2018-12-14T05:25:12.960Z,100566.25
2018-12-14T05:27:42.293Z,100565.78
2018-12-14T05:30:11.675Z,100560.02
2018-12-14T05:32:40.956Z,100568.42
2018-12-14T05:35:10.207Z,100576.36
2018-12-14T05:37:39.412Z,100577.78
2018-12-14T05:40:08.679Z,100578.16
2018-12-14T05:42:37.939Z,100585.60
2018-12-14T05:45:07.643Z,100578.27
2018-12-14T05:47:36.848Z,100590.42
2018-12-14T05:50:06.821Z,100585.47
2018-12-14T05:52:35.987Z,100589.16
2018-12-14T05:55:05.801Z,100591.84
2018-12-14T05:57:35.344Z,100589.33
2018-12-14T06:00:05.605Z,100590.77
2018-12-14T06:02:34.819Z,100593.41
2018-12-14T06:05:04.099Z,100591.48
2018-12-14T06:07:33.319Z,100589.09
2018-12-14T06:10:02.595Z,100591.23
2018-12-14T06:12:31.805Z,100587.64
2018-12-14T06:15:01.049Z,100587.03
2018-12-14T06:17:30.237Z,100591.59
2018-12-14T06:19:59.462Z,100586.67
2018-12-14T06:22:28.735Z,100592.68
2018-12-14T06:24:58.090Z,100591.11
2018-12-14T06:27:27.290Z,100587.98
2018-12-14T06:29:56.675Z,100595.70
2018-12-14T06:32:25.939Z,100599.98
2018-12-14T06:34:55.187Z,100602.29
2018-12-14T06:37:24.428Z,100609.22
2018-12-14T06:39:53.668Z,100611.42
2018-12-14T06:42:22.877Z,100608.30
2018-12-14T06:44:52.393Z,100610.69
2018-12-14T06:47:21.628Z,100605.16
2018-12-14T06:49:50.966Z,100618.86
2018-12-14T06:52:20.224Z,100618.37
2018-12-14T06:54:49.548Z,100617.30
2018-12-14T06:57:18.846Z,100621.25
2018-12-14T06:59:48.089Z,100621.48
2018-12-14T07:02:17.438Z,100629.77
2018-12-14T07:04:46.645Z,100632.06
2018-12-14T07:07:17.172Z,100627.98
2018-12-14T07:09:46.464Z,100635.66
2018-12-14T07:12:15.941Z,100653.19
2018-12-14T07:14:45.236Z,100648.48
2018-12-14T07:17:14.466Z,100652.23
2018-12-14T07:19:43.640Z,100650.78
2018-12-14T07:22:12.829Z,100660.61
2018-12-14T07:24:42.123Z,100659.31
2018-12-14T07:27:11.386Z,100664.34
2018-12-14T07:29:40.630Z,100671.07
2018-12-14T07:32:10.226Z,100676.81
2018-12-14T07:34:39.158Z,100673.09
2018-12-14T07:37:08.948Z,100679.80
2018-12-14T07:39:38.169Z,100687.14
2018-12-14T07:42:07.469Z,100684.95
2018-12-14T07:44:36.867Z,100688.08
2018-12-14T07:47:11.709Z,100688.44
2018-12-14T07:49:36.526Z,100683.06
2018-12-14T07:52:08.097Z,100687.86
2018-12-14T07:54:37.338Z,100694.67
2018-12-14T07:57:06.627Z,100688.70
2018-12-14T07:59:35.801Z,100690.52
2018-12-14T08:02:05.233Z,100698.19
2018-12-14T08:04:34.487Z,100693.36
2018-12-14T08:07:03.728Z,100699.88
2018-12-14T08:09:32.974Z,100704.53
2018-12-14T08:12:02.217Z,100702.86
2018-12-14T08:14:31.416Z,100698.31
2018-12-14T08:17:00.656Z,100706.84
2018-12-14T08:19:29.859Z,100713.67
2018-12-14T08:21:59.142Z,100713.80
2018-12-14T08:24:28.329Z,100716.09
2018-12-14T08:26:57.678Z,100725.31
2018-12-14T08:29:26.859Z,100716.66
2018-12-14T08:31:56.097Z,100722.53
2018-12-14T08:34:25.320Z,100724.96
2018-12-14T08:36:54.538Z,100726.50
2018-12-14T08:39:23.714Z,100727.81
2018-12-14T08:41:52.918Z,100728.07
2018-12-14T08:44:22.151Z,100735.87
2018-12-14T08:46:51.365Z,100734.55
2018-12-14T08:49:20.508Z,100741.52
2018-12-14T08:51:49.761Z,100737.82
2018-12-14T08:54:18.937Z,100743.45
2018-12-14T08:56:48.174Z,100749.45
2018-12-14T08:59:17.377Z,100753.77
2018-12-14T09:01:46.666Z,100751.72
2018-12-14T09:04:15.998Z,100753.77
2018-12-14T09:06:45.201Z,100753.31
2018-12-14T09:09:14.537Z,100773.56
2018-12-14T09:11:43.759Z,100766.60
2018-12-14T09:14:12.960Z,100769.37
2018-12-14T09:16:42.200Z,100773.08
2018-12-14T09:19:11.485Z,100771.77
2018-12-14T09:21:40.733Z,100772.63
2018-12-14T09:24:10.314Z,100774.31
2018-12-14T09:26:39.534Z,100773.70
2018-12-14T09:29:09.204Z,100772.27
2018-12-14T09:31:38.520Z,100780.78
2018-12-14T09:34:08.198Z,100776.11
2018-12-14T09:36:37.421Z,100780.91
2018-12-14T09:39:07.455Z,100773.70
2018-12-14T09:41:36.659Z,100782.93
2018-12-14T09:44:05.985Z,100767.80
2018-12-14T09:46:37.247Z,100775.72
2018-12-14T09:49:04.464Z,100776.34
2018-12-14T09:51:33.664Z,100775.60
2018-12-14T09:54:02.912Z,100775.48
2018-12-14T09:56:32.553Z,100768.53
2018-12-14T09:59:01.775Z,100769.13
2018-12-14T10:01:31.088Z,100764.11
2018-12-14T10:04:00.398Z,100771.08
2018-12-14T10:06:29.677Z,100768.44
2018-12-14T10:08:58.925Z,100770.73
2018-12-14T10:11:28.186Z,100773.23
2018-12-14T10:14:00.837Z,100772.16
2018-12-14T10:16:26.869Z,100773.59
2018-12-14T10:18:56.174Z,100773.47
2018-12-14T10:21:25.405Z,100779.09
2018-12-14T10:23:54.644Z,100775.73
2018-12-14T10:26:23.842Z,100773.56
2018-12-14T10:28:53.098Z,100777.94
2018-12-14T10:31:22.327Z,100777.55
2018-12-14T10:33:51.628Z,100776.47
2018-12-14T10:36:20.838Z,100773.59
2018-12-14T10:38:50.092Z,100770.34
2018-12-14T10:41:19.322Z,100768.20
2018-12-14T10:43:48.581Z,100770.01
2018-12-14T10:46:18.069Z,100766.98
2018-12-14T10:48:47.393Z,100763.74
2018-12-14T10:51:16.725Z,100768.89
2018-12-14T10:53:46.026Z,100762.19
2018-12-14T10:56:15.197Z,100767.61
2018-12-14T10:58:44.457Z,100773.23
2018-12-14T11:01:20.185Z,100765.52
2018-12-14T11:03:50.807Z,100768.78
2018-12-14T11:06:21.174Z,100765.16
2018-12-14T11:08:51.613Z,100769.00
2018-12-14T11:11:21.689Z,100772.48
2018-12-14T11:13:52.413Z,100774.05
2018-12-14T11:16:21.696Z,100770.53
2018-12-14T11:18:50.965Z,100763.84
2018-12-14T11:21:20.213Z,100763.72
2018-12-14T11:23:49.647Z,100770.69
2018-12-14T11:26:18.867Z,100763.94
2018-12-14T11:28:48.058Z,100764.59
2018-12-14T11:31:17.409Z,100761.11
2018-12-14T11:33:46.801Z,100762.78
2018-12-14T11:36:16.115Z,100759.20
2018-12-14T11:38:45.347Z,100763.66
2018-12-14T11:41:18.434Z,100762.67
2018-12-14T11:43:43.924Z,100757.03
2018-12-14T11:46:13.228Z,100761.58
2018-12-14T11:48:42.528Z,100760.00
2018-12-14T11:51:14.478Z,100765.50
2018-12-14T11:53:43.685Z,100760.75
2018-12-14T11:56:13.064Z,100761.56
2018-12-14T11:58:42.293Z,100767.11
2018-12-14T12:01:12.046Z,100760.72
2018-12-14T12:03:42.993Z,100755.45
2018-12-14T12:06:10.598Z,100750.91
2018-12-14T12:08:39.811Z,100754.59
2018-12-14T12:11:09.524Z,100753.28
2018-12-14T12:13:38.691Z,100760.96
2018-12-14T12:16:08.345Z,100756.52
2018-12-14T12:18:37.640Z,100751.12
2018-12-14T12:21:06.826Z,100748.98
2018-12-14T12:23:36.128Z,100746.72
2018-12-14T12:26:05.386Z,100752.44
2018-12-14T12:28:34.806Z,100745.83
2018-12-14T12:31:04.041Z,100745.95
2018-12-14T12:33:33.267Z,100745.02
2018-12-14T12:36:02.534Z,100738.89
2018-12-14T12:38:37.946Z,100752.81
2018-12-14T12:41:00.968Z,100743.19
2018-12-14T12:43:30.199Z,100747.44
2018-12-14T12:45:59.705Z,100746.81
2018-12-14T12:48:28.924Z,100748.48
2018-12-14T12:51:03.044Z,100757.38
2018-12-14T12:53:27.440Z,100754.86
2018-12-14T12:55:56.707Z,100756.05
2018-12-14T12:58:25.992Z,100761.97
2018-12-14T13:00:55.898Z,100753.08
2018-12-14T13:03:25.142Z,100760.62
2018-12-14T13:05:54.374Z,100753.55
2018-12-14T13:08:23.615Z,100761.09
2018-12-14T13:10:53.071Z,100756.56
2018-12-14T13:13:22.324Z,100765.78
2018-12-14T13:15:51.516Z,100761.00
2018-12-14T13:18:20.771Z,100759.67
2018-12-14T13:20:50.049Z,100766.77
2018-12-14T13:23:19.424Z,100778.77
2018-12-14T13:25:48.649Z,100778.42
2018-12-14T13:28:17.930Z,100776.27
2018-12-14T13:30:47.184Z,100779.37
2018-12-14T13:33:16.489Z,100776.83
2018-12-14T13:35:45.736Z,100783.22
2018-12-14T13:38:14.996Z,100785.25
2018-12-14T13:40:44.275Z,100785.01
2018-12-14T13:43:13.809Z,100784.29
2018-12-14T13:45:43.063Z,100789.48
2018-12-14T13:48:12.352Z,100791.97
2018-12-14T13:50:41.619Z,100787.89
2018-12-14T13:53:11.415Z,100790.19
2018-12-14T13:55:40.712Z,100796.10
2018-12-14T13:58:10.563Z,100794.52
2018-12-14T14:00:39.844Z,100794.28
2018-12-14T14:03:10.346Z,100806.68
2018-12-14T14:05:38.748Z,100811.69
2018-12-14T14:08:09.267Z,100814.18
2018-12-14T14:10:38.457Z,100811.28
2018-12-14T14:13:08.345Z,100815.61
2018-12-14T14:15:37.559Z,100813.89
2018-12-14T14:18:07.015Z,100817.14
2018-12-14T14:20:36.220Z,100821.36
2018-12-14T14:23:05.450Z,100826.17
2018-12-14T14:25:34.746Z,100830.13
2018-12-14T14:28:03.973Z,100831.21
2018-12-14T14:30:33.354Z,100829.62
2018-12-14T14:33:02.577Z,100843.81
2018-12-14T14:35:31.857Z,100843.19
2018-12-14T14:38:01.046Z,100835.41
2018-12-14T14:40:30.381Z,100841.80
2018-12-14T14:42:59.574Z,100849.58
2018-12-14T14:45:28.886Z,100862.42
2018-12-14T14:47:58.151Z,100855.86
2018-12-14T14:50:27.376Z,100858.86
2018-12-14T14:52:56.614Z,100862.30
2018-12-14T14:55:25.902Z,100852.70
2018-12-14T14:57:55.172Z,100855.42
2018-12-14T15:00:24.392Z,100857.34
2018-12-14T15:02:53.642Z,100861.98
2018-12-14T15:05:22.872Z,100867.03
2018-12-14T15:07:52.071Z,100867.42
2018-12-14T15:10:21.329Z,100873.66
2018-12-14T15:12:50.535Z,100878.11
2018-12-14T15:15:19.741Z,100877.34
2018-12-14T15:17:48.949Z,100878.83
2018-12-14T15:20:18.199Z,100870.80
2018-12-14T15:22:47.449Z,100876.87
2018-12-14T15:25:17.022Z,100884.95
2018-12-14T15:27:46.217Z,100884.95
2018-12-14T15:30:15.589Z,100893.55
2018-12-14T15:32:44.773Z,100893.67
2018-12-14T15:35:15.147Z,100894.27
2018-12-14T15:37:44.289Z,100891.34
2018-12-14T15:40:13.972Z,100904.03
2018-12-14T15:42:43.185Z,100912.37
2018-12-14T15:45:13.574Z,100903.60
2018-12-14T15:47:42.853Z,100911.96
2018-12-14T15:50:12.137Z,100913.16
2018-12-14T15:52:41.449Z,100911.68
2018-12-14T15:55:10.654Z,100911.31
2018-12-14T15:57:39.955Z,100917.41
2018-12-14T16:00:09.305Z,100907.24
2018-12-14T16:02:38.611Z,100912.37
2018-12-14T16:05:07.887Z,100914.13
2018-12-14T16:07:37.113Z,100919.77
2018-12-14T16:10:06.637Z,100921.25
2018-12-14T16:12:35.879Z,100917.97
2018-12-14T16:15:06.331Z,100916.72
2018-12-14T16:17:35.988Z,100920.12
2018-12-14T16:20:06.158Z,100924.93
2018-12-14T16:22:35.416Z,100919.95
2018-12-14T16:25:04.848Z,100924.39
2018-12-14T16:27:34.099Z,100920.55
2018-12-14T16:30:03.407Z,100923.25
2018-12-14T16:32:32.706Z,100922.49
2018-12-14T16:35:01.972Z,100927.45
2018-12-14T16:37:31.331Z,100928.64
2018-12-14T16:40:00.545Z,100936.45
2018-12-14T16:42:30.758Z,100938.05
2018-12-14T16:45:00.094Z,100934.40
2018-12-14T16:47:29.394Z,100933.11
2018-12-14T16:49:58.568Z,100939.56
2018-12-14T16:52:27.829Z,100942.88
2018-12-14T16:54:57.100Z,100947.48
2018-12-14T16:57:26.324Z,100948.77
2018-12-14T16:59:55.499Z,100949.25
2018-12-14T17:02:24.803Z,100950.89
2018-12-14T17:04:54.051Z,100947.80
2018-12-14T17:07:23.292Z,100956.17
2018-12-14T17:09:52.476Z,100962.56
2018-12-14T17:12:21.778Z,100963.58
2018-12-14T17:14:51.061Z,100967.30
2018-12-14T17:17:20.305Z,100968.20
2018-12-14T17:19:49.528Z,100978.45
2018-12-14T17:22:18.894Z,100970.70
2018-12-14T17:24:48.198Z,100978.17
2018-12-14T17:27:18.112Z,100979.13
2018-12-14T17:29:47.488Z,100984.34
2018-12-14T17:32:16.833Z,100988.89
2018-12-14T17:34:46.268Z,100985.95
2018-12-14T17:37:15.972Z,100984.03
2018-12-14T17:39:45.261Z,100990.08
2018-12-14T17:42:14.829Z,100990.55
2018-12-14T17:44:44.118Z,100989.55
2018-12-14T17:47:13.684Z,100989.02
2018-12-14T17:49:43.333Z,100992.63
2018-12-14T17:52:12.675Z,100994.52
2018-12-14T17:54:41.986Z,100996.87
2018-12-14T17:57:11.342Z,100989.55
2018-12-14T17:59:42.255Z,100985.66
2018-12-14T18:02:11.512Z,100987.44
2018-12-14T18:04:40.824Z,100983.91
2018-12-14T18:07:10.114Z,100986.42
2018-12-14T18:09:39.344Z,100988.09
2018-12-14T18:12:08.682Z,100989.77
2018-12-14T18:14:37.947Z,100991.20
2018-12-14T18:17:07.244Z,100995.78
2018-12-14T18:19:37.622Z,100992.52
2018-12-14T18:22:06.821Z,100989.77
2018-12-14T18:24:36.076Z,100989.97
2018-12-14T18:27:05.368Z,100998.55
2018-12-14T18:29:34.644Z,100999.34
2018-12-14T18:32:03.894Z,100999.70
2018-12-14T18:34:33.128Z,101003.36
2018-12-14T18:37:02.366Z,101005.55
2018-12-14T18:39:31.969Z,101012.23
2018-12-14T18:42:01.280Z,101018.71
2018-12-14T18:44:30.533Z,101023.27
2018-12-14T18:46:59.741Z,101023.09
2018-12-14T18:49:29.034Z,101030.53
2018-12-14T18:51:58.288Z,101029.41
2018-12-14T18:54:27.613Z,101038.53
2018-12-14T18:56:56.899Z,101037.16
2018-12-14T18:59:26.128Z,101045.33
2018-12-14T19:01:55.482Z,101041.91
2018-12-14T19:04:24.721Z,101053.20
2018-12-14T19:06:54.025Z,101052.41
2018-12-14T19:09:23.327Z,101055.78
2018-12-14T19:11:54.059Z,101057.58
2018-12-14T19:14:22.387Z,101063.70
2018-12-14T19:16:51.709Z,101070.02
2018-12-14T19:19:20.909Z,101075.42
2018-12-14T19:21:50.193Z,101076.86
2018-12-14T19:24:19.414Z,101078.96
2018-12-14T19:26:48.612Z,101077.21
2018-12-14T19:29:17.832Z,101071.75
2018-12-14T19:31:47.041Z,101075.84
2018-12-14T19:34:16.884Z,101080.09
2018-12-14T19:36:46.359Z,101080.15
2018-12-14T19:39:17.057Z,101075.34
2018-12-14T19:41:46.341Z,101082.20
2018-12-14T19:44:15.725Z,101088.14
2018-12-14T19:46:44.939Z,101089.88
2018-12-14T19:49:14.351Z,101091.58
2018-12-14T19:51:43.582Z,101094.98
2018-12-14T19:54:13.382Z,101095.06
2018-12-14T19:56:42.671Z,101094.10
2018-12-14T19:59:12.202Z,101091.88
2018-12-14T20:01:41.444Z,101091.08
2018-12-14T20:04:10.736Z,101094.16
2018-12-14T20:06:40.306Z,101088.09
2018-12-14T20:09:09.510Z,101090.47
2018-12-14T20:11:38.869Z,101080.92
2018-12-14T20:14:08.960Z,101082.20
2018-12-14T20:16:37.410Z,101084.47
2018-12-14T20:19:06.642Z,101077.34
2018-12-14T20:21:35.845Z,101080.35
2018-12-14T20:24:05.887Z,101083.05
2018-12-14T20:26:35.085Z,101084.06
2018-12-14T20:29:04.336Z,101084.95
2018-12-14T20:31:33.538Z,101082.59
2018-12-14T20:34:02.895Z,101084.84
2018-12-14T20:36:32.140Z,101084.05
2018-12-14T20:39:01.550Z,101086.54
2018-12-14T20:41:30.841Z,101083.88
2018-12-14T20:44:00.154Z,101090.72
2018-12-14T20:46:29.665Z,101087.25
2018-12-14T20:48:58.866Z,101089.41
2018-12-14T20:51:28.153Z,101087.18
2018-12-14T20:53:57.408Z,101093.36
2018-12-14T20:56:26.655Z,101087.06
2018-12-14T20:58:56.230Z,101091.94
2018-12-14T21:01:26.906Z,101091.83
2018-12-14T21:03:56.165Z,101086.81
2018-12-14T21:06:25.448Z,101091.26
2018-12-14T21:08:55.101Z,101088.34
2018-12-14T21:11:24.554Z,101095.54
2018-12-14T21:13:53.991Z,101103.62
2018-12-14T21:16:26.081Z,101098.79
2018-12-14T21:18:52.582Z,101099.05
2018-12-14T21:21:21.914Z,101104.77
2018-12-14T21:23:51.148Z,101098.96
2018-12-14T21:26:20.507Z,101100.03
2018-12-14T21:28:49.824Z,101096.09
2018-12-14T21:31:19.278Z,101094.77
2018-12-14T21:33:52.122Z,101090.97
2018-12-14T21:36:21.391Z,101084.34
2018-12-14T21:38:50.854Z,101081.64
2018-12-14T21:41:20.272Z,101083.08
2018-12-14T21:43:49.498Z,101083.45
2018-12-14T21:46:18.770Z,101076.50
2018-12-14T21:48:47.996Z,101074.03
2018-12-14T21:51:17.255Z,101075.95
2018-12-14T21:53:46.610Z,101071.10
2018-12-14T21:56:15.855Z,101070.44
2018-12-14T21:58:47.220Z,101071.47
2018-12-14T22:01:16.522Z,101066.41
2018-12-14T22:03:45.900Z,101066.23
2018-12-14T22:06:15.710Z,101069.58
2018-12-14T22:08:44.887Z,101064.68
2018-12-14T22:11:14.366Z,101071.51
2018-12-14T22:13:43.656Z,101072.24
2018-12-14T22:16:13.319Z,101073.80
2018-12-14T22:18:42.794Z,101078.94
2018-12-14T22:21:12.145Z,101077.98
2018-12-14T22:23:41.474Z,101079.08
2018-12-14T22:26:11.023Z,101080.15
2018-12-14T22:28:43.091Z,101078.55
2018-12-14T22:31:12.391Z,101077.51
2018-12-14T22:33:41.600Z,101080.03
2018-12-14T22:36:10.864Z,101077.09
2018-12-14T22:38:40.096Z,101078.03
2018-12-14T22:41:09.361Z,101080.48
2018-12-14T22:43:38.642Z,101074.72
2018-12-14T22:46:07.848Z,101076.23
2018-12-14T22:48:37.130Z,101072.70
2018-12-14T22:51:07.526Z,101078.50
2018-12-14T22:53:36.713Z,101069.58
2018-12-14T22:56:06.094Z,101065.19
2018-12-14T22:58:35.546Z,101067.48
2018-12-14T23:01:04.794Z,101067.66
2018-12-14T23:03:34.113Z,101064.13
2018-12-14T23:06:03.351Z,101065.57
2018-12-14T23:08:32.784Z,101064.91
2018-12-14T23:11:03.153Z,101064.19
2018-12-14T23:13:32.380Z,101063.53
2018-12-14T23:16:02.175Z,101067.71
2018-12-14T23:18:31.525Z,101066.41
2018-12-14T23:21:01.677Z,101067.30
2018-12-14T23:23:30.858Z,101075.52
2018-12-14T23:26:00.206Z,101070.92
2018-12-14T23:28:29.481Z,101074.14
2018-12-14T23:30:58.658Z,101068.63
2018-12-14T23:33:27.929Z,101069.05
2018-12-14T23:35:57.140Z,101070.36
2018-12-14T23:38:26.409Z,101069.58
2018-12-14T23:40:55.656Z,101068.98
2018-12-14T23:43:24.974Z,101064.17
2018-12-14T23:45:54.225Z,101064.95
2018-12-14T23:48:23.532Z,101066.22
2018-12-14T23:50:52.753Z,101069.22
2018-12-14T23:53:21.976Z,101060.27
2018-12-14T23:55:51.213Z,101069.73
2018-12-14T23:58:20.478Z,101072.38
